createdAt,value
2024-05-09T00:00:45.300Z,2.20
2024-05-09T00:03:12.897Z,2.30
2024-05-09T00:05:44.243Z,2.20
2024-05-09T00:08:12.312Z,2.30
2024-05-09T00:10:40.901Z,2.53
2024-05-09T00:13:10.213Z,2.20
2024-05-09T00:15:37.821Z,2.30
2024-05-09T00:18:07.136Z,2.77
2024-05-09T00:20:39.036Z,2.53
2024-05-09T00:23:12.660Z,2.40
2024-05-09T00:25:44.380Z,2.40
2024-05-09T00:28:12.813Z,2.27
2024-05-09T00:30:40.213Z,2.60
2024-05-09T00:33:09.430Z,2.10
2024-05-09T00:35:38.503Z,2.27
2024-05-09T00:38:06.182Z,2.10
2024-05-09T00:40:39.692Z,2.30
2024-05-09T00:43:10.199Z,2.60
2024-05-09T00:45:37.510Z,2.38
2024-05-09T00:48:07.981Z,2.30
2024-05-09T00:50:39.932Z,2.60
2024-05-09T00:53:10.921Z,2.57
2024-05-09T00:55:39.159Z,2.80
2024-05-09T00:58:07.588Z,1.90
2024-05-09T01:00:39.305Z,2.60
2024-05-09T01:03:10.812Z,2.30
2024-05-09T01:05:40.330Z,2.30
2024-05-09T01:08:09.048Z,2.13
2024-05-09T01:10:41.711Z,2.43
2024-05-09T01:13:11.198Z,1.80
2024-05-09T01:15:38.196Z,2.70
2024-05-09T01:18:10.541Z,2.33
2024-05-09T01:20:42.381Z,2.13
2024-05-09T01:23:12.899Z,2.33
2024-05-09T01:25:41.168Z,2.20
2024-05-09T01:28:08.231Z,3.10
2024-05-09T01:30:37.361Z,2.53
2024-05-09T01:33:08.387Z,1.80
2024-05-09T01:35:37.957Z,2.50
2024-05-09T01:38:05.398Z,2.40
2024-05-09T01:40:38.057Z,2.53
2024-05-09T01:43:08.543Z,2.58
2024-05-09T01:45:36.721Z,2.50
2024-05-09T01:48:04.230Z,2.05
2024-05-09T01:53:01.726Z,2.50
2024-05-09T01:55:28.836Z,2.30
2024-05-09T01:57:55.861Z,2.28
2024-05-09T02:00:33.872Z,2.38
2024-05-09T02:03:10.160Z,2.15
2024-05-09T02:05:38.252Z,2.35
2024-05-09T02:08:06.909Z,2.15
2024-05-09T02:10:34.115Z,2.05
2024-05-09T02:13:01.346Z,2.80
2024-05-09T02:15:28.484Z,2.40
2024-05-09T02:17:55.689Z,2.58
2024-05-09T02:20:30.334Z,2.40
2024-05-09T02:23:05.151Z,2.17
2024-05-09T02:25:32.994Z,2.33
2024-05-09T02:28:00.170Z,2.58
2024-05-09T02:30:37.754Z,2.33
2024-05-09T02:33:09.196Z,4.78
2024-05-09T02:35:37.384Z,2.60
2024-05-09T02:38:04.733Z,2.53
2024-05-09T02:40:37.023Z,1.70
2024-05-09T02:43:07.655Z,2.25
2024-05-09T02:45:34.914Z,2.17
2024-05-09T02:48:02.434Z,2.75
2024-05-09T02:50:37.053Z,2.43
2024-05-09T02:53:07.876Z,2.67
2024-05-09T02:55:35.495Z,2.90
2024-05-09T02:58:02.756Z,2.60
2024-05-09T03:00:37.833Z,2.80
2024-05-09T03:03:10.127Z,2.50
2024-05-09T03:05:40.171Z,2.33
2024-05-09T03:08:07.933Z,2.40
2024-05-09T03:10:37.244Z,2.40
2024-05-09T03:13:12.890Z,2.40
2024-05-09T03:15:41.380Z,2.22
2024-05-09T03:18:09.257Z,2.35
2024-05-09T03:20:37.239Z,2.47
2024-05-09T03:23:06.425Z,2.17
2024-05-09T03:25:34.403Z,2.35
2024-05-09T03:28:01.782Z,2.30
2024-05-09T03:30:39.095Z,2.50
2024-05-09T03:33:15.761Z,3.03
2024-05-09T03:35:44.255Z,2.10
2024-05-09T03:38:11.495Z,2.20
2024-05-09T03:40:50.454Z,2.40
2024-05-09T03:43:19.979Z,2.80
2024-05-09T03:45:49.838Z,2.38
2024-05-09T03:48:17.404Z,2.90
2024-05-09T03:50:44.839Z,2.85
2024-05-09T03:53:13.340Z,2.78
2024-05-09T03:55:40.936Z,2.78
2024-05-09T03:58:09.287Z,2.60
2024-05-09T04:00:39.320Z,3.00
2024-05-09T04:03:10.478Z,2.40
2024-05-09T04:05:41.477Z,2.80
2024-05-09T04:08:10.390Z,2.55
2024-05-09T04:10:37.920Z,2.28
2024-05-09T04:13:05.121Z,2.35
2024-05-09T04:15:32.556Z,3.17
2024-05-09T04:18:00.367Z,2.95
2024-05-09T04:20:36.248Z,3.00
2024-05-09T04:23:08.740Z,2.50
2024-05-09T04:25:36.699Z,2.38
2024-05-09T04:28:04.137Z,2.40
2024-05-09T04:30:37.623Z,2.70
2024-05-09T04:33:10.141Z,2.83
2024-05-09T04:35:39.332Z,2.20
2024-05-09T04:38:06.825Z,2.40
2024-05-09T04:40:36.591Z,2.33
2024-05-09T04:43:05.820Z,2.30
2024-05-09T04:45:33.258Z,1.80
2024-05-09T04:48:01.062Z,2.10
2024-05-09T04:50:36.127Z,2.05
2024-05-09T04:53:08.135Z,3.85
2024-05-09T04:55:36.960Z,2.15
2024-05-09T04:58:05.094Z,2.42
2024-05-09T05:00:36.605Z,2.35
2024-05-09T05:03:07.938Z,2.35
2024-05-09T05:05:38.269Z,2.53
2024-05-09T05:08:06.650Z,2.90
2024-05-09T05:10:36.443Z,2.88
2024-05-09T05:13:18.402Z,3.45
2024-05-09T05:15:50.730Z,2.80
2024-05-09T05:18:18.680Z,2.13
2024-05-09T05:20:46.200Z,2.40
2024-05-09T05:23:15.526Z,2.00
2024-05-09T05:25:43.380Z,2.60
2024-05-09T05:28:10.782Z,1.77
2024-05-09T05:30:38.853Z,2.65
2024-05-09T05:33:07.464Z,2.13
2024-05-09T05:35:36.569Z,2.75
2024-05-09T05:38:04.321Z,2.88
2024-05-09T05:40:36.091Z,2.23
2024-05-09T05:43:10.591Z,3.00
2024-05-09T05:45:38.793Z,2.07
2024-05-09T05:48:07.484Z,1.90
2024-05-09T05:50:37.512Z,2.60
2024-05-09T05:53:10.335Z,1.70
2024-05-09T05:55:39.323Z,3.30
2024-05-09T05:58:10.332Z,3.03
2024-05-09T06:00:39.645Z,2.33
2024-05-09T06:03:09.610Z,2.30
2024-05-09T06:05:40.226Z,2.30
2024-05-09T06:08:08.148Z,2.17
2024-05-09T06:10:39.188Z,2.33
2024-05-09T06:13:14.703Z,2.20
2024-05-09T06:15:42.442Z,2.40
2024-05-09T06:18:11.485Z,2.10
2024-05-09T06:20:41.918Z,2.20
2024-05-09T06:23:10.600Z,2.30
2024-05-09T06:25:38.122Z,1.77
2024-05-09T06:28:05.862Z,2.40
2024-05-09T06:33:03.780Z,1.80
2024-05-09T06:35:31.247Z,1.90
2024-05-09T06:37:58.529Z,2.40
2024-05-09T06:40:34.196Z,1.80
2024-05-09T06:43:05.043Z,2.13
2024-05-09T06:45:32.033Z,2.07
2024-05-09T06:47:59.318Z,1.90
2024-05-09T06:50:31.068Z,2.20
2024-05-09T06:53:02.910Z,1.80
2024-05-09T06:55:30.105Z,2.07
2024-05-09T06:57:57.066Z,1.57
2024-05-09T07:00:30.768Z,1.70
2024-05-09T07:03:13.435Z,1.90
2024-05-09T07:05:42.958Z,2.07
2024-05-09T07:08:10.423Z,2.00
2024-05-09T07:10:38.099Z,1.63
2024-05-09T07:13:12.713Z,2.27
2024-05-09T07:15:40.816Z,1.93
2024-05-09T07:18:12.975Z,1.70
2024-05-09T07:20:40.950Z,1.70
2024-05-09T07:23:14.885Z,1.73
2024-05-09T07:25:42.437Z,1.50
2024-05-09T07:28:15.421Z,1.93
2024-05-09T07:30:43.377Z,2.10
2024-05-09T07:33:15.950Z,1.70
2024-05-09T07:35:43.223Z,1.87
2024-05-09T07:38:10.511Z,1.67
2024-05-09T07:40:38.786Z,1.13
2024-05-09T07:43:08.023Z,1.40
2024-05-09T07:53:36.651Z,1.87
2024-05-09T07:55:56.211Z,1.20
2024-05-09T07:58:27.743Z,1.57
2024-05-09T08:00:55.322Z,1.90
2024-05-09T08:03:23.281Z,1.23
2024-05-09T08:05:51.981Z,1.40
2024-05-09T08:08:19.167Z,1.63
2024-05-09T08:10:46.639Z,1.57
2024-05-09T08:13:14.167Z,1.30
2024-05-09T08:15:41.505Z,1.70
2024-05-09T08:18:12.215Z,1.00
2024-05-09T08:20:41.404Z,2.70
2024-05-09T08:23:08.786Z,1.50
2024-05-09T08:25:35.844Z,1.40
2024-05-09T08:28:05.295Z,1.77
2024-05-09T08:30:36.645Z,1.20
2024-05-09T08:33:06.650Z,1.37
2024-05-09T08:35:34.960Z,1.50
2024-05-09T08:38:06.935Z,1.63
2024-05-09T08:40:36.966Z,1.67
2024-05-09T08:43:11.376Z,1.70
2024-05-09T08:45:44.289Z,1.60
2024-05-09T08:48:15.096Z,1.40
2024-05-09T08:50:43.933Z,1.53
2024-05-09T08:53:12.331Z,1.47
2024-05-09T08:55:42.652Z,1.53
2024-05-09T08:58:15.585Z,1.57
2024-05-09T09:00:45.199Z,1.20
2024-05-09T09:03:19.648Z,1.60
2024-05-09T09:05:55.491Z,1.70
2024-05-09T09:08:23.068Z,1.30
2024-05-09T09:10:53.810Z,1.40
2024-05-09T09:13:21.090Z,1.10
2024-05-09T09:15:49.505Z,1.20
2024-05-09T09:18:17.588Z,1.60
2024-05-09T09:20:45.380Z,1.60
2024-05-09T09:23:12.598Z,1.33
2024-05-09T09:25:40.819Z,1.43
2024-05-09T09:28:08.604Z,1.60
2024-05-09T09:30:42.530Z,1.67
2024-05-09T09:33:10.562Z,1.70
2024-05-09T09:35:40.758Z,1.83
2024-05-09T09:38:10.479Z,1.40
2024-05-09T09:40:46.605Z,1.27
2024-05-09T09:43:22.712Z,1.30
2024-05-09T09:45:52.868Z,1.90
2024-05-09T09:48:22.013Z,1.50
2024-05-09T09:50:52.165Z,1.70
2024-05-09T09:53:20.202Z,1.27
2024-05-09T09:55:48.591Z,1.90
2024-05-09T09:58:17.856Z,1.33
2024-05-09T10:00:45.614Z,1.53
2024-05-09T10:03:13.232Z,1.30
2024-05-09T10:05:43.994Z,1.27
2024-05-09T10:08:13.890Z,1.40
2024-05-09T10:10:47.570Z,1.37
2024-05-09T10:13:15.206Z,1.30
2024-05-09T10:15:46.996Z,1.40
2024-05-09T10:18:15.053Z,1.47
2024-05-09T10:20:46.301Z,1.30
2024-05-09T10:23:29.692Z,1.43
2024-05-09T10:25:57.793Z,1.30
2024-05-09T10:28:32.735Z,1.70
2024-05-09T10:31:00.898Z,1.30
2024-05-09T10:33:45.377Z,1.23
2024-05-09T10:36:14.032Z,1.33
2024-05-09T10:38:44.345Z,1.50
2024-05-09T10:41:11.922Z,1.57
2024-05-09T10:43:41.023Z,1.63
2024-05-09T10:46:08.733Z,1.30
2024-05-09T10:48:41.718Z,1.47
2024-05-09T10:51:09.468Z,1.20
2024-05-09T10:53:49.080Z,1.40
2024-05-09T10:56:17.041Z,1.50
2024-05-09T10:58:44.324Z,1.30
2024-05-09T11:01:13.719Z,1.70
2024-05-09T11:03:41.450Z,1.60
2024-05-09T11:06:11.038Z,1.50
2024-05-09T11:08:39.292Z,1.53
2024-05-09T11:11:08.284Z,1.37
2024-05-09T11:13:37.872Z,1.50
2024-05-09T11:16:06.927Z,1.60
2024-05-09T11:18:38.169Z,1.37
2024-05-09T11:21:13.428Z,1.10
2024-05-09T11:23:41.291Z,1.63
2024-05-09T11:26:10.275Z,1.50
2024-05-09T11:28:37.343Z,1.10
2024-05-09T11:31:09.855Z,1.40
2024-05-09T11:33:42.302Z,1.10
2024-05-09T11:36:10.074Z,1.00
2024-05-09T11:38:37.356Z,1.27
2024-05-09T11:41:05.807Z,0.90
2024-05-09T11:43:33.302Z,1.30
2024-05-09T11:46:01.127Z,1.13
2024-05-09T11:48:28.656Z,1.10
2024-05-09T11:50:56.542Z,0.93
2024-05-09T11:53:23.577Z,1.13
2024-05-09T11:55:50.711Z,1.57
2024-05-09T11:58:19.095Z,1.20
2024-05-09T12:00:47.116Z,1.00
2024-05-09T12:03:14.659Z,1.07
2024-05-09T12:05:42.099Z,1.10
2024-05-09T12:08:09.698Z,1.23
2024-05-09T12:10:37.462Z,1.80
2024-05-09T12:13:06.587Z,1.50
2024-05-09T12:15:37.825Z,1.30
2024-05-09T12:18:06.774Z,1.00
2024-05-09T12:20:38.366Z,1.27
2024-05-09T12:23:09.674Z,1.50
2024-05-09T12:25:39.059Z,1.20
2024-05-09T12:28:07.301Z,1.07
2024-05-09T12:30:38.630Z,1.10
2024-05-09T12:33:12.635Z,1.13
2024-05-09T12:35:43.473Z,1.37
2024-05-09T12:38:12.996Z,1.20
2024-05-09T12:40:40.158Z,1.03
2024-05-09T12:43:09.096Z,1.30
2024-05-09T12:45:37.819Z,1.13
2024-05-09T12:48:08.377Z,1.20
2024-05-09T12:50:36.314Z,0.90
2024-05-09T12:53:04.520Z,1.10
2024-05-09T12:55:40.847Z,1.57
2024-05-09T12:58:18.638Z,0.97
2024-05-09T13:00:46.600Z,0.93
2024-05-09T13:03:14.128Z,1.57
2024-05-09T13:05:42.010Z,1.50
2024-05-09T13:08:09.408Z,0.90
2024-05-09T13:10:37.124Z,1.30
2024-05-09T13:13:05.046Z,1.20
2024-05-09T13:15:34.614Z,1.20
2024-05-09T13:18:03.408Z,1.50
2024-05-09T13:20:34.226Z,1.10
2024-05-09T13:23:04.956Z,1.13
2024-05-09T13:25:34.829Z,1.27
2024-05-09T13:28:02.538Z,0.93
2024-05-09T13:30:38.452Z,1.00
2024-05-09T13:33:13.866Z,1.77
2024-05-09T13:35:47.112Z,1.60
2024-05-09T13:38:18.474Z,1.30
2024-05-09T13:40:45.904Z,1.53
2024-05-09T13:43:13.754Z,1.07
2024-05-09T13:45:41.008Z,1.47
2024-05-09T13:48:10.367Z,1.20
2024-05-09T13:50:37.689Z,1.17
2024-05-09T13:53:06.830Z,1.47
2024-05-09T13:55:37.536Z,0.93
2024-05-09T13:58:04.927Z,0.90
2024-05-09T14:00:42.668Z,1.33
2024-05-09T14:03:15.851Z,1.30
2024-05-09T14:05:44.262Z,1.17
2024-05-09T14:08:12.005Z,1.73
2024-05-09T14:10:44.926Z,1.37
2024-05-09T14:13:16.126Z,1.10
2024-05-09T14:15:43.482Z,1.00
2024-05-09T14:18:13.478Z,1.30
2024-05-09T14:20:41.957Z,1.20
2024-05-09T14:23:09.297Z,1.20
2024-05-09T14:25:38.794Z,1.20
2024-05-09T14:28:09.232Z,1.03
2024-05-09T14:30:38.116Z,1.07
2024-05-09T14:33:07.273Z,1.20
2024-05-09T14:35:35.492Z,1.00
2024-05-09T14:38:03.286Z,1.73
2024-05-09T14:40:40.496Z,1.20
2024-05-09T14:43:15.406Z,1.50
2024-05-09T14:45:44.054Z,0.90
2024-05-09T14:48:14.317Z,1.10
2024-05-09T14:50:42.177Z,1.10
2024-05-09T14:53:10.862Z,1.60
2024-05-09T14:55:42.772Z,1.33
2024-05-09T14:58:11.399Z,1.70
2024-05-09T15:00:45.832Z,1.00
2024-05-09T15:03:17.185Z,1.10
2024-05-09T15:05:45.262Z,1.23
2024-05-09T15:08:12.564Z,1.30
2024-05-09T15:10:39.812Z,1.17
2024-05-09T15:13:08.885Z,1.20
2024-05-09T15:15:37.696Z,1.30
2024-05-09T15:18:05.860Z,1.20
2024-05-09T15:20:36.273Z,1.20
2024-05-09T15:23:07.113Z,1.53
2024-05-09T15:25:35.708Z,1.43
2024-05-09T15:28:03.684Z,1.80
2024-05-09T15:30:33.154Z,1.30
2024-05-09T15:33:05.771Z,1.37
2024-05-09T15:35:34.177Z,1.07
2024-05-09T15:38:03.482Z,1.70
2024-05-09T15:40:37.983Z,1.67
2024-05-09T15:43:09.344Z,1.20
2024-05-09T15:45:37.920Z,1.40
2024-05-09T15:48:06.055Z,1.10
2024-05-09T15:50:38.757Z,1.77
2024-05-09T15:53:09.927Z,1.67
2024-05-09T15:55:38.349Z,1.53
2024-05-09T15:58:06.531Z,1.00
2024-05-09T16:00:39.131Z,1.47
2024-05-09T16:03:14.324Z,1.23
2024-05-09T16:05:45.496Z,1.43
2024-05-09T16:08:14.853Z,1.47
2024-05-09T16:10:46.354Z,1.40
2024-05-09T16:13:14.936Z,1.67
2024-05-09T16:15:43.914Z,1.10
2024-05-09T16:18:11.424Z,1.20
2024-05-09T16:20:41.333Z,1.40
2024-05-09T16:23:10.540Z,1.30
2024-05-09T16:25:38.152Z,1.10
2024-05-09T16:28:08.835Z,1.67
2024-05-09T16:30:38.717Z,1.40
2024-05-09T16:33:06.659Z,1.47
2024-05-09T16:35:34.990Z,1.47
2024-05-09T16:38:03.718Z,1.10
2024-05-09T16:40:37.835Z,1.60
2024-05-09T16:43:08.685Z,1.70
2024-05-09T16:45:36.953Z,1.40
2024-05-09T16:48:04.728Z,1.30
2024-05-09T16:50:34.663Z,1.43
2024-05-09T16:53:04.876Z,1.57
2024-05-09T16:55:32.877Z,1.53
2024-05-09T16:58:00.418Z,1.10
2024-05-09T17:00:38.177Z,1.00
2024-05-09T17:03:11.468Z,1.50
2024-05-09T17:05:39.837Z,1.63
2024-05-09T17:08:08.266Z,1.23
2024-05-09T17:10:36.604Z,0.97
2024-05-09T17:13:06.694Z,1.13
2024-05-09T17:15:36.796Z,1.50
2024-05-09T17:18:05.494Z,1.50
2024-05-09T17:20:36.005Z,1.63
2024-05-09T17:23:13.137Z,1.50
2024-05-09T17:25:41.094Z,1.57
2024-05-09T17:28:09.529Z,1.20
2024-05-09T17:30:39.080Z,1.40
2024-05-09T17:33:09.569Z,1.20
2024-05-09T17:35:38.290Z,1.10
2024-05-09T17:38:06.611Z,1.03
2024-05-09T17:40:36.550Z,1.10
2024-05-09T17:43:06.941Z,1.37
2024-05-09T17:45:37.795Z,1.70
2024-05-09T17:48:05.913Z,1.00
2024-05-09T17:50:36.099Z,1.40
2024-05-09T17:53:06.082Z,1.13
2024-05-09T17:55:34.000Z,1.30
2024-05-09T17:58:01.645Z,1.40
2024-05-09T18:00:38.595Z,1.57
2024-05-09T18:03:11.103Z,1.30
2024-05-09T18:05:39.136Z,1.43
2024-05-09T18:08:07.361Z,1.27
2024-05-09T18:10:38.164Z,1.20
2024-05-09T18:13:10.951Z,1.53
2024-05-09T18:15:39.054Z,1.40
2024-05-09T18:18:06.846Z,1.03
2024-05-09T18:20:41.931Z,1.00
2024-05-09T18:23:17.933Z,1.47
2024-05-09T18:25:46.742Z,1.80
2024-05-09T18:28:14.730Z,1.30
2024-05-09T18:30:41.980Z,1.20
2024-05-09T18:33:12.706Z,2.03
2024-05-09T18:35:42.924Z,1.43
2024-05-09T18:38:10.312Z,1.23
2024-05-09T18:40:38.877Z,1.40
2024-05-09T18:43:08.906Z,1.13
2024-05-09T18:45:39.987Z,1.20
2024-05-09T18:48:09.200Z,1.60
2024-05-09T18:50:39.705Z,1.40
2024-05-09T18:53:11.581Z,1.00
2024-05-09T18:55:40.093Z,1.47
2024-05-09T18:58:07.370Z,1.37
2024-05-09T19:00:38.482Z,1.27
2024-05-09T19:03:20.747Z,1.30
2024-05-09T19:05:49.085Z,1.57
2024-05-09T19:08:17.160Z,1.70
2024-05-09T19:10:46.093Z,1.40
2024-05-09T19:13:16.759Z,1.50
2024-05-09T19:15:46.743Z,1.67
2024-05-09T19:18:18.758Z,1.67
2024-05-09T19:20:45.979Z,2.30
2024-05-09T19:23:13.232Z,2.60
2024-05-09T19:25:42.708Z,2.10
2024-05-09T19:28:09.985Z,1.50
2024-05-09T19:30:41.029Z,1.60
2024-05-09T19:33:12.044Z,1.93
2024-05-09T19:35:40.236Z,2.63
2024-05-09T19:38:07.583Z,1.40
2024-05-09T19:40:35.559Z,1.63
2024-05-09T19:43:04.988Z,1.47
2024-05-09T19:45:34.108Z,1.50
2024-05-09T19:48:02.487Z,1.50
2024-05-09T19:50:37.529Z,2.57
2024-05-09T19:53:10.205Z,1.47
2024-05-09T19:55:37.864Z,1.73
2024-05-09T19:58:10.191Z,1.27
2024-05-09T20:00:40.498Z,1.90
2024-05-09T20:03:11.260Z,1.60
2024-05-09T20:05:39.328Z,1.57
2024-05-09T20:08:07.113Z,1.80
2024-05-09T20:10:35.976Z,1.60
2024-05-09T20:13:06.017Z,1.60
2024-05-09T20:15:35.705Z,1.73
2024-05-09T20:18:04.642Z,1.60
2024-05-09T20:20:37.813Z,2.30
2024-05-09T20:23:09.254Z,1.67
2024-05-09T20:25:39.022Z,2.23
2024-05-09T20:28:06.881Z,1.90
2024-05-09T20:30:35.315Z,2.03
2024-05-09T20:33:05.040Z,2.13
2024-05-09T20:35:33.615Z,1.73
2024-05-09T20:38:02.312Z,1.83
2024-05-09T20:40:56.359Z,1.90
2024-05-09T20:43:24.732Z,3.87
2024-05-09T20:45:51.884Z,1.90
2024-05-09T20:48:18.993Z,2.23
2024-05-09T20:50:48.034Z,1.97
2024-05-09T20:53:17.763Z,2.40
2024-05-09T20:55:45.478Z,1.90
2024-05-09T20:58:13.339Z,1.63
2024-05-09T21:00:43.873Z,2.30
2024-05-09T21:03:14.908Z,2.40
2024-05-09T21:05:43.769Z,1.67
2024-05-09T21:08:11.433Z,1.93
2024-05-09T21:10:38.848Z,2.00
2024-05-09T21:13:07.410Z,1.93
2024-05-09T21:15:35.657Z,1.80
2024-05-09T21:18:03.490Z,1.77
2024-05-09T21:20:33.426Z,1.83
2024-05-09T21:23:02.119Z,1.70
2024-05-09T21:25:30.892Z,2.40
2024-05-09T21:27:58.210Z,4.43
2024-05-09T21:30:37.059Z,1.90
2024-05-09T21:33:12.015Z,2.03
2024-05-09T21:35:41.696Z,1.43
2024-05-09T21:38:08.887Z,2.17
2024-05-09T21:40:37.487Z,2.70
2024-05-09T21:43:08.576Z,2.40
2024-05-09T21:45:36.609Z,2.83
2024-05-09T21:48:05.023Z,1.67
2024-05-09T21:50:39.409Z,2.40
2024-05-09T21:53:09.106Z,1.90
2024-05-09T21:55:37.568Z,2.40
2024-05-09T21:58:06.134Z,2.60
2024-05-09T22:00:38.062Z,2.33
2024-05-09T22:03:08.167Z,1.87
2024-05-09T22:05:36.505Z,2.10
2024-05-09T22:08:04.359Z,2.37
2024-05-09T22:10:35.060Z,2.10
2024-05-09T22:13:05.814Z,2.17
2024-05-09T22:15:38.637Z,2.40
2024-05-09T22:18:08.491Z,2.60
2024-05-09T22:20:39.442Z,2.33
2024-05-09T22:23:08.290Z,2.17
2024-05-09T22:25:38.659Z,2.27
2024-05-09T22:28:06.313Z,2.30
2024-05-09T22:30:37.452Z,2.57
2024-05-09T22:33:11.878Z,2.57
2024-05-09T22:35:40.567Z,2.17
2024-05-09T22:38:09.494Z,2.07
2024-05-09T22:40:47.454Z,2.40
2024-05-09T22:43:24.563Z,2.17
2024-05-09T22:45:55.165Z,2.37
2024-05-09T22:48:24.232Z,2.20
2024-05-09T22:50:52.148Z,2.13
2024-05-09T22:53:19.564Z,2.33
2024-05-09T22:55:46.623Z,2.00
2024-05-09T22:58:13.834Z,2.30
2024-05-09T23:00:43.348Z,1.73
2024-05-09T23:03:10.538Z,2.83
2024-05-09T23:05:37.648Z,2.50
2024-05-09T23:08:05.037Z,3.33
2024-05-09T23:10:36.425Z,2.00
2024-05-09T23:13:07.428Z,2.33
2024-05-09T23:15:35.832Z,2.30
2024-05-09T23:18:02.977Z,2.23
2024-05-09T23:20:36.880Z,2.47
2024-05-09T23:23:11.235Z,2.20
2024-05-09T23:25:39.533Z,2.43
2024-05-09T23:28:07.047Z,2.37
2024-05-09T23:30:38.568Z,2.90
2024-05-09T23:33:09.539Z,2.10
2024-05-09T23:35:37.331Z,3.20
2024-05-09T23:38:04.661Z,2.73
2024-05-09T23:43:01.688Z,2.67
2024-05-09T23:45:29.151Z,2.13
2024-05-09T23:47:56.362Z,2.60
2024-05-09T23:50:30.696Z,2.70
2024-05-09T23:53:01.741Z,2.63
2024-05-09T23:55:29.339Z,3.07
2024-05-09T23:57:56.469Z,2.50
